Time;durP1;ratioP1;P1;durP2;ratioP2;P2;SDS_P1;SDS_P2;PMS_P1;PMS_P2;Temp;Humidity;BMP_temperature;BMP_pressure;BME280_temperature;BME280_humidity;BME280_pressure;Samples;Min_cycle;Max_cycle;Signal;HPM_P1;HPM_P2
2023/10/10 00:00:04;;;;;;;5.90;1.87;;;17.80;52.60;;;;;;2316647;53;3167053;-66
2023/10/10 00:02:31;;;;;;;4.45;1.42;;;17.70;52.60;;;;;;2340816;53;21083;-68
2023/10/10 00:05:02;;;;;;;3.12;1.42;;;17.70;52.70;;;;;;2598985;52;20926;-66
2023/10/10 00:07:28;;;;;;;5.80;1.85;;;17.70;52.80;;;;;;2345009;53;21978;-66
2023/10/10 00:09:59;;;;;;;6.10;1.95;;;17.60;52.70;;;;;;2344075;53;21095;-66
2023/10/10 00:12:28;;;;;;;4.65;1.50;;;17.60;52.80;;;;;;2355911;53;22938;-66
2023/10/10 00:14:58;;;;;;;3.67;1.40;;;17.60;52.90;;;;;;2368962;53;20939;-66
2023/10/10 00:17:34;;;;;;;3.87;1.50;;;17.60;52.90;;;;;;2620064;52;20926;-68
2023/10/10 00:20:21;;;;;;;4.82;1.52;;;17.50;52.80;;;;;;2368721;53;20910;-68
2023/10/10 00:22:48;;;;;;;5.75;1.80;;;17.50;52.90;;;;;;2621522;52;20927;-66
2023/10/10 00:25:16;;;;;;;4.93;1.45;;;17.50;52.80;;;;;;2609394;52;20961;-68
2023/10/10 00:27:47;;;;;;;6.07;1.62;;;17.40;52.80;;;;;;2366435;53;20934;-67
2023/10/10 00:30:14;;;;;;;5.22;1.37;;;17.40;52.90;;;;;;2366641;53;20902;-69
2023/10/10 00:32:42;;;;;;;4.43;1.35;;;17.40;53.00;;;;;;2368199;53;21006;-69
2023/10/10 00:35:09;;;;;;;4.93;1.67;;;17.40;53.10;;;;;;2619131;52;21527;-66
2023/10/10 00:37:36;;;;;;;5.45;1.67;;;17.30;53.10;;;;;;2367873;53;20922;-66
2023/10/10 00:40:07;;;;;;;6.87;1.02;;;17.30;53.10;;;;;;2367873;53;21049;-67
2023/10/10 00:42:40;;;;;;;5.72;1.58;;;17.30;53.10;;;;;;2598617;52;21044;-66
2023/10/10 00:45:12;;;;;;;5.18;1.85;;;17.30;53.10;;;;;;2344884;53;20999;-67
2023/10/10 00:47:42;;;;;;;4.15;1.35;;;17.20;53.10;;;;;;2341190;53;21022;-66
2023/10/10 00:50:19;;;;;;;4.25;1.52;;;17.20;53.10;;;;;;2339896;53;22063;-65
2023/10/10 00:52:53;;;;;;;4.68;2.05;;;17.20;53.30;;;;;;2340782;53;22020;-67
2023/10/10 00:55:24;;;;;;;4.43;1.37;;;17.10;53.10;;;;;;2597055;52;21003;-65
2023/10/10 00:57:53;;;;;;;7.93;1.67;;;17.10;53.20;;;;;;2346416;53;20937;-66
2023/10/10 01:00:25;;;;;;;6.78;1.52;;;17.10;53.20;;;;;;2340146;53;21171;-66
2023/10/10 01:03:01;;;;;;;4.55;1.67;;;17.10;53.20;;;;;;2587208;52;20913;-66
2023/10/10 01:05:39;;;;;;;4.93;1.58;;;17.00;53.10;;;;;;2339746;53;21008;-66
2023/10/10 01:08:08;;;;;;;3.87;1.50;;;17.00;53.20;;;;;;2340461;53;20979;-66
2023/10/10 01:10:47;;;;;;;7.18;1.62;;;17.00;53.20;;;;;;2586312;52;20928;-70
2023/10/10 01:13:14;;;;;;;5.78;1.80;;;16.90;53.20;;;;;;2366899;53;20970;-65
2023/10/10 01:15:51;;;;;;;4.78;1.65;;;16.90;53.30;;;;;;2366850;53;20930;-67
2023/10/10 01:18:24;;;;;;;6.47;1.83;;;16.90;53.40;;;;;;2366861;53;20941;-65
2023/10/10 01:20:51;;;;;;;8.43;1.83;;;16.80;53.40;;;;;;2367999;53;20947;-66
2023/10/10 01:23:26;;;;;;;5.32;1.58;;;16.80;53.50;;;;;;2618891;52;21005;-69
2023/10/10 01:25:52;;;;;;;5.40;1.60;;;16.80;53.50;;;;;;2369373;53;20977;-66
2023/10/10 01:28:33;;;;;;;4.15;1.33;;;16.80;53.50;;;;;;2361340;53;21680;-67
2023/10/10 01:31:03;;;;;;;4.97;1.48;;;16.80;53.60;;;;;;2368087;53;20978;-67
2023/10/10 01:33:36;;;;;;;6.20;1.40;;;16.70;53.50;;;;;;2619391;52;21462;-66
2023/10/10 01:36:11;;;;;;;3.15;1.05;;;16.70;53.50;;;;;;2619532;52;20941;-66
2023/10/10 01:44:37;;;;;;;3.47;1.35;;;16.70;53.50;;;;;;2368086;53;21855;-69
2023/10/10 01:47:03;;;;;;;5.53;1.00;;;16.70;53.60;;;;;;2366817;53;21455;-66
2023/10/10 01:49:30;;;;;;;5.00;1.50;;;16.60;53.30;;;;;;2366409;53;20906;-66
2023/10/10 01:51:58;;;;;;;4.62;1.58;;;16.60;53.40;;;;;;2369333;53;20961;-66
2023/10/10 01:54:39;;;;;;;7.70;1.42;;;16.50;53.50;;;;;;2612663;52;20954;-66
2023/10/10 01:57:07;;;;;;;4.97;1.65;;;16.50;53.60;;;;;;2368281;53;21126;-66
2023/10/10 01:59:38;;;;;;;4.22;1.40;;;16.50;53.60;;;;;;2613371;52;20911;-66
2023/10/10 02:02:11;;;;;;;3.40;1.25;;;16.50;53.70;;;;;;2367774;53;21057;-66
2023/10/10 02:04:39;;;;;;;6.12;1.55;;;16.40;53.70;;;;;;2364504;53;20929;-66
2023/10/10 02:07:23;;;;;;;5.35;1.50;;;16.40;53.70;;;;;;2366882;53;20917;-66
2023/10/10 02:09:58;;;;;;;6.62;1.40;;;16.40;53.70;;;;;;2366842;53;21016;-66
2023/10/10 02:12:26;;;;;;;4.75;1.58;;;16.40;53.80;;;;;;2362517;53;21061;-66
2023/10/10 02:14:54;;;;;;;5.70;1.52;;;16.30;53.70;;;;;;2367015;53;21285;-66
2023/10/10 02:17:22;;;;;;;5.18;1.40;;;16.30;53.70;;;;;;2365482;53;20966;-66
2023/10/10 02:19:59;;;;;;;5.35;1.40;;;16.30;53.90;;;;;;2616038;52;20926;-66
2023/10/10 02:27:32;;;;;;;3.70;1.12;;;16.30;53.80;;;;;;2618113;52;20993;-66
2023/10/10 02:30:04;;;;;;;5.12;1.45;;;16.20;53.70;;;;;;2368449;53;21159;-66
2023/10/10 02:32:33;;;;;;;4.40;1.45;;;16.20;53.70;;;;;;2620638;52;20911;-66
2023/10/10 02:35:26;;;;;;;3.95;1.25;;;16.20;53.70;;;;;;2368479;53;20970;-66
2023/10/10 02:37:54;;;;;;;4.45;1.50;;;16.20;53.80;;;;;;2368747;53;20938;-66
2023/10/10 02:40:30;;;;;;;5.70;1.30;;;16.10;53.70;;;;;;2616737;52;21009;-66
2023/10/10 02:46:38;;;;;;;5.68;1.30;;;16.00;53.70;;;;;;2619552;52;20926;-66
2023/10/10 02:49:22;;;;;;;4.37;1.35;;;16.00;53.80;;;;;;2368322;53;21700;-66
2023/10/10 02:51:49;;;;;;;4.75;1.42;;;16.00;54.00;;;;;;2621494;52;20942;-66
2023/10/10 02:54:28;;;;;;;5.37;1.52;;;16.00;54.00;;;;;;2365899;53;20937;-66
2023/10/10 02:56:58;;;;;;;4.87;1.55;;;15.90;53.90;;;;;;2613881;52;20933;-66
2023/10/10 02:59:31;;;;;;;4.57;1.87;;;15.90;54.00;;;;;;2615740;52;20961;-66
2023/10/10 03:02:08;;;;;;;5.03;1.67;;;15.80;54.10;;;;;;2368444;53;21029;-66
2023/10/10 03:07:28;;;;;;;5.47;1.42;;;15.80;54.40;;;;;;2620219;52;20945;-66
2023/10/10 03:16:40;;;;;;;4.18;1.60;;;15.70;54.50;;;;;;2620574;52;20961;-67
2023/10/10 03:21:51;;;;;;;3.37;1.27;;;15.70;54.70;;;;;;2620441;52;20072;-65
2023/10/10 03:30:50;;;;;;;4.00;1.33;;;15.70;54.70;;;;;;2586072;52;20987;-67
2023/10/10 03:39:41;;;;;;;5.68;1.23;;;15.70;54.80;;;;;;2585337;52;20965;-65
2023/10/10 05:23:36;;;;;;;4.78;1.87;;;15.30;55.40;;;;;;2368610;53;21460;-67
2023/10/10 05:26:05;;;;;;;5.72;2.10;;;15.30;55.50;;;;;;2620986;52;20934;-67
2023/10/10 05:28:51;;;;;;;6.90;2.30;;;15.30;55.60;;;;;;2369369;53;21855;-66
2023/10/10 05:31:21;;;;;;;5.68;1.98;;;15.30;55.90;;;;;;2368808;53;20978;-66
2023/10/10 05:33:47;;;;;;;7.25;2.53;;;15.30;55.60;;;;;;2368301;53;21013;-66
2023/10/10 05:36:14;;;;;;;4.55;2.08;;;15.30;55.70;;;;;;2620686;52;20899;-65
2023/10/10 05:38:41;;;;;;;5.07;1.95;;;15.30;55.80;;;;;;2368025;53;20949;-65
2023/10/10 05:41:10;;;;;;;4.93;1.60;;;15.30;55.80;;;;;;2368872;53;20990;-65
2023/10/10 05:43:36;;;;;;;7.18;1.80;;;15.30;55.70;;;;;;2620525;52;20954;-66
2023/10/10 05:46:03;;;;;;;4.50;1.85;;;15.30;55.70;;;;;;2368841;53;20978;-66
2023/10/10 05:48:35;;;;;;;8.77;2.53;;;15.30;55.70;;;;;;2366139;53;21034;-66
2023/10/10 05:51:08;;;;;;;9.70;2.78;;;15.30;55.60;;;;;;2600174;52;21099;-65
2023/10/10 05:53:34;;;;;;;6.32;2.53;;;15.20;55.60;;;;;;2369177;53;20993;-66
2023/10/10 05:56:16;;;;;;;6.22;2.37;;;15.20;55.60;;;;;;2368491;53;20934;-65
2023/10/10 05:58:47;;;;;;;4.40;1.95;;;15.20;55.60;;;;;;2621269;52;20946;-66
2023/10/10 06:01:14;;;;;;;5.50;2.35;;;15.20;55.60;;;;;;2363133;53;21861;-65
2023/10/10 06:03:47;;;;;;;6.40;2.83;;;15.20;55.70;;;;;;2354413;53;20934;-65
2023/10/10 06:06:13;;;;;;;;;;;15.20;55.80;;;;;;2624832;52;20918;-65
2023/10/10 06:08:43;;;;;;;6.93;2.30;;;15.20;56.00;;;;;;2367768;53;20133;-66
2023/10/10 06:11:15;;;;;;;7.37;2.33;;;15.10;55.70;;;;;;2620548;52;21194;-66
2023/10/10 06:13:54;;;;;;;7.28;1.95;;;15.20;55.90;;;;;;2368277;54;20976;-65
2023/10/10 06:16:20;;;;;;;7.03;1.90;;;15.20;56.20;;;;;;2368118;53;22301;-66
2023/10/10 06:18:47;;;;;;;4.32;1.77;;;15.20;56.00;;;;;;2369023;53;20974;-66
2023/10/10 06:21:14;;;;;;;4.93;2.20;;;15.20;56.60;;;;;;2620071;52;20934;-67
2023/10/10 06:23:44;;;;;;;6.28;1.50;;;15.20;56.00;;;;;;2620703;52;21697;-68
2023/10/10 06:26:14;;;;;;;4.35;1.70;;;15.20;56.00;;;;;;2621046;52;20910;-69
2023/10/10 06:28:47;;;;;;;6.15;1.87;;;15.20;56.00;;;;;;2370983;53;21001;-67
2023/10/10 06:31:20;;;;;;;5.10;2.10;;;15.20;56.00;;;;;;2347849;53;20961;-66
2023/10/10 06:33:49;;;;;;;5.47;1.90;;;15.20;56.10;;;;;;2620780;52;20958;-66
2023/10/10 06:36:32;;;;;;;6.82;2.12;;;15.20;56.20;;;;;;2621381;52;20998;-66
2023/10/10 06:41:58;;;;;;;8.25;2.15;;;15.20;56.30;;;;;;2368427;53;20990;-66
2023/10/10 06:44:35;;;;;;;5.47;2.30;;;15.20;56.40;;;;;;2368976;53;20894;-66
2023/10/10 06:47:08;;;;;;;5.80;2.05;;;15.30;56.50;;;;;;2348432;54;21350;-66
2023/10/10 06:49:46;;;;;;;3.62;1.62;;;15.30;56.60;;;;;;2369618;53;20989;-66
2023/10/10 06:52:19;;;;;;;4.65;1.85;;;15.30;57.30;;;;;;2621103;52;21183;-66
2023/10/10 06:54:53;;;;;;;6.60;2.20;;;15.30;56.70;;;;;;2620318;52;21034;-66
2023/10/10 06:57:35;;;;;;;6.45;1.95;;;15.40;56.90;;;;;;2617544;52;21883;-67
2023/10/10 07:00:53;;;;;;;8.20;2.10;;;15.40;57.20;;;;;;2351030;53;20955;-67
2023/10/10 07:03:30;;;;;;;7.40;2.65;;;15.50;57.40;;;;;;2368888;53;21066;-68
2023/10/10 07:05:56;;;;;;;8.27;2.55;;;15.50;57.30;;;;;;2368330;53;20934;-69
2023/10/10 07:08:26;;;;;;;6.00;2.60;;;15.60;57.50;;;;;;2368895;53;21152;-66
2023/10/10 07:10:53;;;;;;;6.50;2.33;;;15.60;57.60;;;;;;2620103;52;20942;-67
2023/10/10 07:13:29;;;;;;;5.85;3.05;;;15.60;57.60;;;;;;2369291;53;21005;-66
2023/10/10 07:15:56;;;;;;;6.90;2.92;;;15.70;57.80;;;;;;2368231;53;20910;-71
2023/10/10 07:18:22;;;;;;;6.10;2.45;;;15.80;57.90;;;;;;2621173;52;20926;-67
2023/10/10 07:21:17;;;;;;;7.07;2.80;;;15.80;57.90;;;;;;2356395;53;21579;-70
2023/10/10 07:24:05;;;;;;;6.75;2.00;;;15.90;58.00;;;;;;2587571;52;21644;-66
2023/10/10 07:26:41;;;;;;;5.12;1.73;;;16.00;58.00;;;;;;2369129;53;21553;-67
2023/10/10 07:29:27;;;;;;;5.32;2.30;;;16.00;58.00;;;;;;2586195;52;20929;-66
2023/10/10 07:32:16;;;;;;;6.30;2.20;;;16.10;58.10;;;;;;2340928;53;20905;-69
2023/10/10 07:34:49;;;;;;;6.07;2.30;;;16.20;58.30;;;;;;2587265;52;20945;-66
2023/10/10 07:37:18;;;;;;;7.18;2.42;;;16.30;58.40;;;;;;2587282;52;20910;-66
2023/10/10 07:40:20;;;;;;;7.37;2.83;;;16.30;58.50;;;;;;2341276;53;20920;-66
2023/10/10 07:43:03;;;;;;;6.40;2.15;;;16.50;59.20;;;;;;2359115;53;21481;-67
2023/10/10 07:45:33;;;;;;;6.72;2.65;;;16.50;58.70;;;;;;2340959;53;20916;-67
2023/10/10 07:51:19;;;;;;;7.75;2.70;;;16.80;59.00;;;;;;2340872;53;21024;-66
2023/10/10 07:53:58;;;;;;;6.28;2.20;;;16.80;58.90;;;;;;2586938;52;20945;-69
2023/10/10 07:56:24;;;;;;;5.72;2.20;;;16.90;59.00;;;;;;2340936;53;20999;-68
2023/10/10 07:58:56;;;;;;;6.00;2.75;;;17.00;59.10;;;;;;2339610;53;21621;-66
2023/10/10 08:01:24;;;;;;;10.88;2.80;;;17.10;59.20;;;;;;2587235;52;20924;-67
2023/10/10 08:03:50;;;;;;;8.98;2.80;;;17.20;59.40;;;;;;2341346;53;20984;-66
2023/10/10 08:06:21;;;;;;;9.05;3.75;;;17.30;59.40;;;;;;2341696;53;21060;-66
2023/10/10 08:09:21;;;;;;;5.30;2.15;;;17.40;59.40;;;;;;2340743;53;21481;-66
2023/10/10 08:11:50;;;;;;;7.30;2.75;;;17.50;59.40;;;;;;2356453;53;20937;-67
2023/10/10 08:14:24;;;;;;;5.53;2.25;;;17.60;59.40;;;;;;2342491;53;21262;-69
2023/10/10 08:16:58;;;;;;;5.10;2.15;;;17.70;59.40;;;;;;2589210;52;21000;-67
2023/10/10 08:19:33;;;;;;;5.28;2.12;;;17.80;59.40;;;;;;2600093;52;21016;-69
2023/10/10 08:22:00;;;;;;;5.80;2.60;;;17.90;59.50;;;;;;2340211;53;20972;-65
2023/10/10 08:24:35;;;;;;;6.62;2.92;;;18.00;59.60;;;;;;2342073;53;20985;-67
2023/10/10 08:27:09;;;;;;;7.45;2.90;;;18.10;59.70;;;;;;2586007;52;21660;-66
2023/10/10 08:29:36;;;;;;;5.72;2.22;;;18.20;59.90;;;;;;2586711;52;21493;-67
2023/10/10 08:32:05;;;;;;;6.47;2.62;;;18.30;60.00;;;;;;2362106;54;21018;-67
2023/10/10 08:34:31;;;;;;;12.00;3.05;;;18.40;60.10;;;;;;2620791;52;21050;-66
2023/10/10 08:37:03;;;;;;;9.88;3.03;;;18.50;60.20;;;;;;2620406;52;21804;-67
2023/10/10 08:39:35;;;;;;;6.50;2.42;;;18.60;60.30;;;;;;2621637;52;21355;-65
2023/10/10 08:42:05;;;;;;;4.80;1.83;;;18.80;61.20;;;;;;2620234;52;20934;-69
2023/10/10 08:44:38;;;;;;;5.45;1.98;;;18.90;60.50;;;;;;2621119;52;20930;-66
2023/10/10 08:47:08;;;;;;;5.40;2.08;;;19.00;60.50;;;;;;2586478;52;20935;-68
2023/10/10 08:49:35;;;;;;;7.00;2.33;;;19.20;60.50;;;;;;2363363;53;20943;-66
2023/10/10 08:52:03;;;;;;;7.10;1.90;;;19.30;60.40;;;;;;2367481;53;21234;-67
2023/10/10 08:54:29;;;;;;;5.45;1.90;;;19.40;60.40;;;;;;2621222;52;20969;-65
2023/10/10 08:57:09;;;;;;;5.57;1.87;;;19.50;60.30;;;;;;2367922;54;20950;-70
2023/10/10 08:59:37;;;;;;;6.03;1.87;;;19.70;60.30;;;;;;2368705;53;20922;-66
2023/10/10 09:02:15;;;;;;;9.65;2.62;;;19.80;60.10;;;;;;2368393;53;21307;-68
2023/10/10 09:04:42;;;;;;;6.50;2.28;;;20.00;60.40;;;;;;2369178;53;21070;-67
2023/10/10 09:07:11;;;;;;;8.20;2.20;;;20.10;60.20;;;;;;2620819;52;20985;-66
2023/10/10 09:09:39;;;;;;;6.97;3.10;;;20.30;60.30;;;;;;2341400;53;21004;-66
2023/10/10 09:12:14;;;;;;;7.78;2.08;;;20.30;60.10;;;;;;2586523;52;21009;-66
2023/10/10 09:14:43;;;;;;;6.25;2.10;;;20.40;60.00;;;;;;2358303;53;20981;-66
2023/10/10 09:17:10;;;;;;;8.52;2.53;;;20.50;60.00;;;;;;2367618;53;22377;-66
2023/10/10 09:19:39;;;;;;;6.30;2.58;;;20.70;60.00;;;;;;2621511;52;20911;-66
2023/10/10 09:22:12;;;;;;;5.65;2.45;;;20.80;60.00;;;;;;2586650;52;20968;-66
2023/10/10 09:24:41;;;;;;;5.82;2.15;;;20.90;60.00;;;;;;2604246;52;20903;-68
2023/10/10 09:27:39;;;;;;;4.95;2.10;;;21.00;59.90;;;;;;2600102;52;21017;-66
2023/10/10 09:30:09;;;;;;;6.30;2.10;;;21.10;59.90;;;;;;2339955;53;20917;-70
2023/10/10 09:32:36;;;;;;;7.72;1.87;;;21.20;59.80;;;;;;2587420;52;20996;-66
2023/10/10 09:35:06;;;;;;;5.75;1.92;;;21.30;59.60;;;;;;2353716;53;21538;-67
2023/10/10 09:37:35;;;;;;;7.70;2.30;;;21.40;59.60;;;;;;2350931;53;21020;-66
2023/10/10 09:40:07;;;;;;;5.70;2.30;;;21.50;59.60;;;;;;2340911;53;20973;-68
2023/10/10 09:54:39;;;;;;;5.15;1.92;;;22.00;59.20;;;;;;2341041;53;20929;-67
2023/10/10 09:57:08;;;;;;;6.80;1.95;;;22.10;59.30;;;;;;2354131;53;21867;-69
2023/10/10 09:59:37;;;;;;;4.65;2.05;;;22.20;59.30;;;;;;2325793;53;21493;-70
2023/10/10 10:02:05;;;;;;;6.68;2.17;;;22.20;59.30;;;;;;2588157;52;20980;-67
2023/10/10 10:04:41;;;;;;;5.90;2.25;;;22.30;59.40;;;;;;2612009;52;20957;-66
2023/10/10 10:10:48;;;;;;;7.85;1.85;;;22.40;59.40;;;;;;2340837;53;21502;-66
2023/10/10 10:14:55;;;;;;;7.28;1.95;;;22.50;59.30;;;;;;2586008;52;21944;-67
2023/10/10 10:17:57;;;;;;;6.00;1.67;;;22.80;59.10;;;;;;2340723;53;21436;-68
2023/10/10 10:20:48;;;;;;;5.60;1.43;;;22.90;58.90;;;;;;2587249;52;21024;-67
2023/10/10 10:23:26;;;;;;;4.82;1.85;;;23.00;58.90;;;;;;2342930;53;21202;-67
2023/10/10 10:25:54;;;;;;;6.32;2.10;;;23.10;58.90;;;;;;2341427;53;21387;-67
2023/10/10 10:28:28;;;;;;;10.70;2.62;;;23.20;59.10;;;;;;2578744;52;21693;-67
2023/10/10 10:30:54;;;;;;;5.60;2.50;;;23.30;59.00;;;;;;2339286;53;20997;-67
2023/10/10 10:33:24;;;;;;;5.93;2.33;;;23.40;58.90;;;;;;2359969;54;22015;-68
2023/10/10 10:36:06;;;;;;;7.22;2.75;;;23.50;58.90;;;;;;2359212;53;20986;-67
2023/10/10 10:38:34;;;;;;;7.75;2.83;;;23.60;58.90;;;;;;2586317;52;20957;-66
2023/10/10 10:41:07;;;;;;;5.95;2.50;;;23.60;58.70;;;;;;2340950;53;21015;-68
2023/10/10 10:43:43;;;;;;;6.47;2.30;;;23.80;58.70;;;;;;2586850;52;21502;-68
2023/10/10 10:46:15;;;;;;;6.10;2.10;;;23.90;58.70;;;;;;2591715;52;21033;-66
2023/10/10 10:48:48;;;;;;;5.28;2.25;;;23.90;58.40;;;;;;2610921;52;21013;-67
2023/10/10 10:51:41;;;;;;;5.70;2.20;;;24.00;58.30;;;;;;2586135;52;20960;-67
2023/10/10 10:55:18;;;;;;;6.50;2.20;;;24.10;58.40;;;;;;2340025;53;20997;-67
2023/10/10 10:57:45;;;;;;;6.32;2.58;;;24.20;58.20;;;;;;2587719;52;20926;-68
2023/10/10 11:00:41;;;;;;;9.15;2.70;;;24.30;58.10;;;;;;2340176;54;20921;-71
2023/10/10 11:03:11;;;;;;;6.67;2.63;;;24.40;58.00;;;;;;2620657;52;21787;-67
2023/10/10 11:05:39;;;;;;;5.20;2.08;;;24.50;58.00;;;;;;2369267;53;20910;-67
2023/10/10 11:08:11;;;;;;;5.28;2.05;;;24.50;57.80;;;;;;2368244;53;20946;-67
2023/10/10 11:10:38;;;;;;;6.70;2.03;;;24.60;57.60;;;;;;2621524;52;21015;-68
2023/10/10 11:13:12;;;;;;;5.20;1.95;;;24.70;57.60;;;;;;2620589;52;21002;-70
2023/10/10 11:15:39;;;;;;;7.32;2.05;;;24.80;57.30;;;;;;2368837;53;20969;-67
2023/10/10 11:18:08;;;;;;;4.03;1.77;;;24.80;57.20;;;;;;2620689;52;20939;-67
2023/10/10 11:20:56;;;;;;;5.20;1.92;;;24.90;57.10;;;;;;2364047;53;20954;-69
2023/10/10 11:23:33;;;;;;;6.55;2.08;;;25.00;56.80;;;;;;2357941;53;21648;-67
2023/10/10 11:26:04;;;;;;;5.75;2.47;;;25.00;56.80;;;;;;2368942;53;20946;-67
2023/10/10 11:28:45;;;;;;;6.45;2.87;;;25.20;56.90;;;;;;2369257;53;21393;-71
2023/10/10 11:31:12;;;;;;;6.20;2.37;;;25.20;56.60;;;;;;2620555;52;21030;-67
2023/10/10 11:33:49;;;;;;;7.43;2.15;;;25.30;56.70;;;;;;2367930;53;20931;-72
2023/10/10 11:36:29;;;;;;;6.15;2.25;;;25.40;56.40;;;;;;2598378;52;20937;-66
2023/10/10 11:39:13;;;;;;;9.20;2.42;;;25.50;55.90;;;;;;2339671;53;21403;-70
2023/10/10 11:41:40;;;;;;;5.62;2.17;;;25.50;55.80;;;;;;2340800;53;20925;-66
2023/10/10 11:44:07;;;;;;;7.22;2.62;;;25.60;55.80;;;;;;2340739;53;21295;-68
2023/10/10 11:46:33;;;;;;;7.72;2.78;;;25.70;55.60;;;;;;2340569;53;20968;-71
2023/10/10 11:49:01;;;;;;;5.97;2.50;;;25.70;55.10;;;;;;2341261;53;21255;-67
2023/10/10 11:51:36;;;;;;;4.85;2.20;;;25.80;54.60;;;;;;2585268;52;20919;-67
2023/10/10 11:54:02;;;;;;;5.72;2.20;;;25.80;53.40;;;;;;2344081;53;21000;-69
2023/10/10 11:56:36;;;;;;;8.57;2.83;;;25.90;53.90;;;;;;2340372;53;20957;-69
2023/10/10 11:59:10;;;;;;;6.15;2.70;;;25.90;53.80;;;;;;2587222;52;21407;-71
2023/10/10 12:01:47;;;;;;;5.53;2.55;;;26.00;52.80;;;;;;2351156;53;22533;-71
2023/10/10 12:04:31;;;;;;;5.57;2.20;;;26.00;52.60;;;;;;2347320;53;20945;-66
2023/10/10 12:07:00;;;;;;;7.10;2.87;;;26.10;52.70;;;;;;2341334;53;20965;-67
2023/10/10 12:09:29;;;;;;;7.18;2.87;;;26.10;52.30;;;;;;2339008;53;21054;-67
2023/10/10 12:11:59;;;;;;;5.47;2.30;;;26.20;51.90;;;;;;2587156;52;21800;-67
2023/10/10 12:14:30;;;;;;;7.25;2.45;;;26.20;51.60;;;;;;2339333;53;20929;-67
2023/10/10 12:17:00;;;;;;;8.52;2.50;;;26.30;51.40;;;;;;2340618;53;20945;-72
2023/10/10 12:19:29;;;;;;;6.18;2.42;;;26.30;51.40;;;;;;2585415;52;20984;-67
2023/10/10 12:22:03;;;;;;;5.95;2.55;;;26.40;51.30;;;;;;2340455;53;20924;-68
2023/10/10 12:24:29;;;;;;;5.95;2.40;;;26.40;51.10;;;;;;2338979;53;21864;-67
2023/10/10 12:26:55;;;;;;;5.47;2.58;;;26.50;51.00;;;;;;2341096;53;20936;-71
2023/10/10 12:29:22;;;;;;;8.10;2.67;;;26.50;50.80;;;;;;2585200;52;20924;-67
2023/10/10 12:31:55;;;;;;;6.82;3.20;;;26.50;50.60;;;;;;2586580;52;20952;-67
2023/10/10 12:34:23;;;;;;;7.40;2.67;;;26.70;50.50;;;;;;2340804;53;20909;-67
2023/10/10 12:36:58;;;;;;;4.68;2.28;;;26.60;50.10;;;;;;2341638;53;20956;-68
2023/10/10 12:39:27;;;;;;;6.55;2.72;;;26.70;49.90;;;;;;2340441;53;21773;-69
2023/10/10 12:41:56;;;;;;;6.60;3.17;;;26.70;49.70;;;;;;2341637;53;20965;-67
2023/10/10 12:44:23;;;;;;;5.57;2.08;;;26.70;49.30;;;;;;2586848;52;20929;-68
2023/10/10 12:46:54;;;;;;;6.97;2.10;;;26.80;49.50;;;;;;2588249;52;20944;-68
2023/10/10 12:49:29;;;;;;;6.25;2.30;;;26.90;49.50;;;;;;2340632;53;20921;-68
2023/10/10 12:51:56;;;;;;;4.85;2.05;;;26.90;49.40;;;;;;2588232;52;20944;-67
2023/10/10 12:54:34;;;;;;;7.40;2.50;;;27.00;49.30;;;;;;2339871;53;21279;-71
2023/10/10 12:57:13;;;;;;;5.70;2.33;;;27.10;49.10;;;;;;2341331;53;21008;-73
2023/10/10 12:59:46;;;;;;;5.65;2.30;;;27.10;48.40;;;;;;2340603;53;20932;-68
2023/10/10 13:02:15;;;;;;;8.23;2.85;;;27.20;48.70;;;;;;2341100;53;21032;-67
2023/10/10 13:04:48;;;;;;;;;;;27.20;48.90;;;;;;2590891;52;21517;-69
2023/10/10 13:07:16;;;;;;;3.97;1.70;;;27.30;48.60;;;;;;2340462;53;20065;-67
2023/10/10 13:09:43;;;;;;;4.60;2.08;;;27.30;49.10;;;;;;2341384;53;21080;-68
2023/10/10 13:12:18;;;;;;;5.03;2.33;;;27.40;48.90;;;;;;2586555;52;20976;-69
2023/10/10 13:14:50;;;;;;;5.72;2.62;;;27.40;48.80;;;;;;2587235;52;20952;-68
2023/10/10 13:17:28;;;;;;;;;;;27.40;48.70;;;;;;2343706;53;20959;-70
2023/10/10 13:19:58;;;;;;;5.50;2.10;;;27.50;48.40;;;;;;2341164;53;20089;-68
2023/10/10 13:22:24;;;;;;;6.75;2.08;;;27.50;48.50;;;;;;2586673;52;20913;-67
2023/10/10 13:24:51;;;;;;;5.22;1.90;;;27.50;48.60;;;;;;2588000;52;20976;-72
2023/10/10 13:27:17;;;;;;;6.72;2.60;;;27.50;48.50;;;;;;2586441;52;21402;-67
2023/10/10 13:29:44;;;;;;;5.53;1.87;;;27.60;48.20;;;;;;2587063;52;20977;-67
2023/10/10 13:32:10;;;;;;;6.30;2.10;;;27.60;48.30;;;;;;2587335;52;21007;-67
2023/10/10 13:34:37;;;;;;;5.45;2.30;;;27.70;48.30;;;;;;2340900;53;21023;-67
2023/10/10 13:37:07;;;;;;;5.78;1.75;;;27.70;48.20;;;;;;2341377;53;20941;-67
2023/10/10 13:39:42;;;;;;;4.07;2.03;;;27.70;48.00;;;;;;2340147;53;22129;-69
2023/10/10 13:42:09;;;;;;;5.40;2.25;;;27.80;47.80;;;;;;2341298;53;20996;-67
2023/10/10 13:44:37;;;;;;;4.90;2.17;;;27.70;47.60;;;;;;2340550;53;20977;-67
2023/10/10 13:47:04;;;;;;;4.12;2.17;;;27.90;47.50;;;;;;2341427;53;20980;-68
2023/10/10 13:49:31;;;;;;;5.28;1.80;;;27.90;47.10;;;;;;2340197;53;20953;-69
2023/10/10 13:51:59;;;;;;;7.65;2.20;;;27.90;47.10;;;;;;2341004;53;21062;-67
2023/10/10 13:54:26;;;;;;;5.10;1.90;;;28.00;46.80;;;;;;2339270;53;21027;-68
2023/10/10 13:56:53;;;;;;;6.97;2.50;;;28.00;46.60;;;;;;2587620;52;21284;-67
2023/10/10 13:59:24;;;;;;;5.10;2.03;;;28.10;46.50;;;;;;2585984;52;21382;-68
2023/10/10 14:01:53;;;;;;;4.47;2.10;;;28.10;46.60;;;;;;2343276;53;21005;-68
2023/10/10 14:04:38;;;;;;;4.57;2.03;;;28.10;46.70;;;;;;2340479;53;20919;-67
2023/10/10 14:07:05;;;;;;;6.00;1.70;;;28.10;46.50;;;;;;2341121;53;20950;-67
2023/10/10 14:09:32;;;;;;;4.35;1.98;;;28.20;46.10;;;;;;2340181;53;21024;-69
2023/10/10 14:12:02;;;;;;;3.83;1.60;;;28.20;45.90;;;;;;2587828;52;20943;-67
2023/10/10 14:14:29;;;;;;;4.15;1.70;;;28.20;45.80;;;;;;2363519;54;21677;-68
2023/10/10 14:16:56;;;;;;;6.15;2.08;;;28.30;45.60;;;;;;2350968;53;21069;-67
2023/10/10 14:19:24;;;;;;;6.68;2.22;;;28.30;45.40;;;;;;2592095;52;20915;-67
2023/10/10 14:21:53;;;;;;;5.15;2.08;;;28.30;45.40;;;;;;2587572;52;21039;-70
2023/10/10 14:24:23;;;;;;;5.45;2.17;;;28.30;45.40;;;;;;2577492;53;20969;-68
2023/10/10 14:26:51;;;;;;;5.35;2.10;;;28.30;45.40;;;;;;2587611;52;20915;-70
2023/10/10 14:29:18;;;;;;;5.43;2.05;;;28.30;45.50;;;;;;2340894;53;21460;-67
2023/10/10 14:31:47;;;;;;;4.97;1.83;;;28.30;45.60;;;;;;2341146;53;20921;-71
2023/10/10 14:34:24;;;;;;;4.90;2.00;;;28.30;45.70;;;;;;2589217;52;21024;-69
2023/10/10 14:36:51;;;;;;;6.93;1.90;;;28.30;45.80;;;;;;2600744;52;20977;-70
2023/10/10 14:39:36;;;;;;;4.43;1.95;;;28.30;45.60;;;;;;2339264;53;21430;-66
2023/10/10 14:42:02;;;;;;;4.22;1.70;;;28.30;45.70;;;;;;2605427;52;20922;-66
2023/10/10 14:44:29;;;;;;;6.07;1.75;;;28.30;45.70;;;;;;2575775;52;22193;-67
2023/10/10 14:46:57;;;;;;;5.30;2.50;;;28.30;45.80;;;;;;2316081;55;21029;-68
2023/10/10 14:49:29;;;;;;;4.55;2.15;;;28.30;45.90;;;;;;2340763;53;21885;-67
2023/10/10 14:52:00;;;;;;;6.95;2.65;;;28.30;46.10;;;;;;2587772;52;21079;-68
2023/10/10 14:54:27;;;;;;;6.10;2.33;;;28.30;46.20;;;;;;2340732;53;21882;-67
2023/10/10 14:56:54;;;;;;;5.82;2.60;;;28.30;46.30;;;;;;2358367;53;21052;-67
2023/10/10 14:59:25;;;;;;;6.95;2.65;;;28.30;46.30;;;;;;2341339;53;20956;-70
2023/10/10 15:01:59;;;;;;;4.87;2.50;;;28.30;46.40;;;;;;2341039;53;21620;-70
2023/10/10 15:04:29;;;;;;;6.22;2.42;;;28.30;46.30;;;;;;2340585;53;21737;-68
2023/10/10 15:06:57;;;;;;;6.80;2.97;;;28.30;46.40;;;;;;2587244;52;21682;-71
2023/10/10 15:09:25;;;;;;;4.57;2.60;;;28.30;46.40;;;;;;2586542;52;21095;-67
2023/10/10 15:11:52;;;;;;;5.95;2.47;;;28.30;46.20;;;;;;2341063;53;20961;-67
2023/10/10 15:14:21;;;;;;;5.97;2.28;;;28.30;45.90;;;;;;2340561;53;20952;-72
2023/10/10 15:16:48;;;;;;;4.68;1.80;;;28.40;45.80;;;;;;2339643;53;20941;-68
2023/10/10 15:19:15;;;;;;;4.45;1.87;;;28.40;45.60;;;;;;2589314;52;20984;-67
2023/10/10 15:21:41;;;;;;;4.32;1.92;;;28.40;45.40;;;;;;2586433;52;20917;-69
2023/10/10 15:24:15;;;;;;;5.30;2.15;;;28.40;45.20;;;;;;2340574;53;20957;-67
2023/10/10 15:26:45;;;;;;;5.30;2.20;;;28.40;45.10;;;;;;2340138;53;21029;-70
2023/10/10 15:29:14;;;;;;;3.92;1.98;;;28.40;45.10;;;;;;2587048;52;20945;-70
2023/10/10 15:31:40;;;;;;;5.62;1.92;;;28.40;45.00;;;;;;2349881;53;21021;-67
2023/10/10 15:34:07;;;;;;;3.65;1.60;;;28.40;45.10;;;;;;2555157;53;20993;-67
2023/10/10 15:36:34;;;;;;;5.28;1.95;;;28.40;45.20;;;;;;2336635;54;20998;-66
2023/10/10 15:39:06;;;;;;;4.22;1.98;;;28.40;45.20;;;;;;2353055;53;20918;-67
2023/10/10 15:41:37;;;;;;;4.05;1.70;;;28.40;45.20;;;;;;2367936;53;21499;-66
2023/10/10 15:44:04;;;;;;;4.25;1.62;;;28.40;45.30;;;;;;2592761;52;20966;-67
2023/10/10 15:46:31;;;;;;;3.83;1.80;;;28.40;45.30;;;;;;2368248;53;20930;-67
2023/10/10 15:48:59;;;;;;;5.78;2.50;;;28.40;45.40;;;;;;2620900;52;21824;-66
2023/10/10 15:51:25;;;;;;;4.30;2.03;;;28.40;45.40;;;;;;2368147;53;21791;-67
2023/10/10 15:53:53;;;;;;;5.15;2.12;;;28.40;45.40;;;;;;2367689;54;20981;-68
2023/10/10 15:56:26;;;;;;;4.10;1.90;;;28.40;45.30;;;;;;2366947;54;21038;-67